Time;durP1;ratioP1;P1;durP2;ratioP2;P2;SDS_P1;SDS_P2;PMS_P1;PMS_P2;Temp;Humidity;BMP_temperature;BMP_pressure;BME280_temperature;BME280_humidity;BME280_pressure;Samples;Min_cycle;Max_cycle;Signal;HPM_P1;HPM_P2
2023/01/26 00:00:24;;;;;;;120.37;36.23;;;;;;;;;;5026636;28;20213;-67
2023/01/26 00:02:49;;;;;;;129.23;34.53;;;;;;;;;;5018555;28;20261;-67
2023/01/26 00:05:15;;;;;;;124.17;35.13;;;;;;;;;;5028176;28;20264;-68
2023/01/26 00:07:44;;;;;;;110.47;34.00;;;;;;;;;;5039455;28;20280;-68
2023/01/26 00:10:10;;;;;;;123.77;34.90;;;;;;;;;;5024609;28;20198;-66
2023/01/26 00:12:35;;;;;;;116.77;34.97;;;;;;;;;;5029376;28;20619;-67
2023/01/26 00:15:01;;;;;;;112.30;33.47;;;;;;;;;;5029582;28;20277;-66
2023/01/26 00:17:26;;;;;;;114.60;33.43;;;;;;;;;;5030359;28;20186;-66
2023/01/26 00:19:53;;;;;;;128.27;35.80;;;;;;;;;;5009677;28;20218;-66
2023/01/26 00:22:19;;;;;;;119.63;35.60;;;;;;;;;;5025461;28;20178;-66
2023/01/26 00:24:44;;;;;;;103.90;31.13;;;;;;;;;;5026793;28;20278;-66
2023/01/26 00:27:10;;;;;;;108.90;32.50;;;;;;;;;;5030218;28;20770;-66
2023/01/26 00:29:35;;;;;;;114.80;33.73;;;;;;;;;;5031051;28;20186;-68
2023/01/26 00:32:00;;;;;;;110.20;30.67;;;;;;;;;;5023526;28;20682;-65
2023/01/26 00:34:26;;;;;;;109.47;31.03;;;;;;;;;;5031516;28;20266;-66
2023/01/26 00:36:51;;;;;;;113.37;32.47;;;;;;;;;;5017006;28;20217;-66
2023/01/26 00:39:17;;;;;;;105.80;32.50;;;;;;;;;;5033840;28;20572;-66
2023/01/26 00:44:26;;;;;;;108.20;30.40;;;;;;;;;;5025081;28;20269;-66
2023/01/26 00:46:52;;;;;;;107.53;31.03;;;;;;;;;;5021949;28;20293;-66
2023/01/26 00:49:17;;;;;;;112.83;31.70;;;;;;;;;;5034344;28;20206;-66
2023/01/26 00:51:42;;;;;;;110.70;33.07;;;;;;;;;;5035203;28;20210;-66
2023/01/26 00:54:08;;;;;;;112.47;33.77;;;;;;;;;;5023712;28;20559;-67
2023/01/26 00:56:33;;;;;;;119.80;33.80;;;;;;;;;;5022462;28;20240;-69
2023/01/26 00:58:58;;;;;;;110.57;32.60;;;;;;;;;;5023664;28;20265;-66
2023/01/26 01:01:24;;;;;;;117.30;34.93;;;;;;;;;;5021171;28;20301;-66
2023/01/26 01:03:50;;;;;;;112.77;33.37;;;;;;;;;;5021362;28;20199;-66
2023/01/26 01:06:16;;;;;;;111.27;34.20;;;;;;;;;;5012089;28;20189;-66
2023/01/26 01:08:42;;;;;;;110.37;32.77;;;;;;;;;;5040311;28;20673;-66
2023/01/26 01:11:09;;;;;;;121.40;32.87;;;;;;;;;;5029484;28;20194;-65
2023/01/26 01:13:35;;;;;;;118.67;33.90;;;;;;;;;;5028853;28;20217;-66
2023/01/26 01:16:07;;;;;;;114.83;32.93;;;;;;;;;;5022737;28;20654;-66
2023/01/26 01:18:33;;;;;;;116.53;34.70;;;;;;;;;;5013817;28;20194;-66
2023/01/26 01:20:58;;;;;;;118.73;33.17;;;;;;;;;;5021998;28;20190;-66
2023/01/26 01:23:28;;;;;;;121.90;34.67;;;;;;;;;;5026581;28;20192;-66
2023/01/26 01:25:57;;;;;;;115.53;34.83;;;;;;;;;;5021053;28;20304;-66
2023/01/26 01:28:23;;;;;;;112.93;33.07;;;;;;;;;;5006370;28;20277;-66
2023/01/26 01:30:48;;;;;;;114.03;32.57;;;;;;;;;;5018450;28;20513;-66
2023/01/26 01:33:14;;;;;;;117.13;34.37;;;;;;;;;;5025547;28;20217;-66
2023/01/26 01:35:39;;;;;;;112.90;32.17;;;;;;;;;;5028104;28;20689;-66
2023/01/26 01:38:04;;;;;;;119.13;34.10;;;;;;;;;;5026313;28;20194;-66
2023/01/26 01:40:30;;;;;;;100.87;29.43;;;;;;;;;;5024202;28;20272;-66
2023/01/26 01:42:55;;;;;;;107.10;32.17;;;;;;;;;;5018565;28;20627;-66
2023/01/26 01:45:40;;;;;;;109.70;32.03;;;;;;;;;;5022924;28;20218;-66
2023/01/26 01:48:13;;;;;;;104.03;32.33;;;;;;;;;;5036842;28;20175;-65
2023/01/26 01:50:39;;;;;;;112.40;33.70;;;;;;;;;;5021908;28;20190;-66
2023/01/26 01:53:08;;;;;;;109.33;33.00;;;;;;;;;;5019099;28;20209;-66
2023/01/26 01:55:34;;;;;;;107.37;32.47;;;;;;;;;;5019574;28;20197;-66
2023/01/26 01:58:02;;;;;;;104.23;29.77;;;;;;;;;;5027956;28;20202;-65
2023/01/26 02:00:28;;;;;;;107.50;31.63;;;;;;;;;;5022793;28;20209;-67
2023/01/26 02:03:13;;;;;;;100.03;31.80;;;;;;;;;;5024430;28;20565;-65
2023/01/26 02:06:02;;;;;;;104.30;30.53;;;;;;;;;;5024010;28;20654;-66
2023/01/26 02:08:46;;;;;;;97.77;28.73;;;;;;;;;;5039112;28;20244;-66
2023/01/26 02:11:32;;;;;;;98.90;28.70;;;;;;;;;;5027075;28;20190;-66
2023/01/26 02:14:01;;;;;;;88.40;26.60;;;;;;;;;;5014900;28;20210;-68
2023/01/26 02:16:26;;;;;;;99.07;28.90;;;;;;;;;;5018599;28;20460;-66
2023/01/26 02:18:51;;;;;;;96.77;28.37;;;;;;;;;;5040472;28;20606;-66
2023/01/26 02:21:19;;;;;;;97.27;29.80;;;;;;;;;;5025361;28;20237;-66
2023/01/26 02:24:08;;;;;;;93.90;27.80;;;;;;;;;;5030014;28;20835;-66
2023/01/26 02:26:35;;;;;;;83.63;26.43;;;;;;;;;;5029396;28;20249;-66
2023/01/26 02:29:02;;;;;;;93.40;29.33;;;;;;;;;;5028400;28;20596;-66
2023/01/26 02:31:28;;;;;;;100.00;28.67;;;;;;;;;;5025650;28;20197;-66
2023/01/26 02:33:53;;;;;;;95.53;28.60;;;;;;;;;;5033531;28;20254;-66
2023/01/26 02:36:25;;;;;;;93.00;27.97;;;;;;;;;;5022705;28;20220;-66
2023/01/26 02:39:02;;;;;;;83.23;25.17;;;;;;;;;;5023075;28;20251;-66
2023/01/26 02:44:13;;;;;;;89.60;27.80;;;;;;;;;;5039238;28;20227;-66
2023/01/26 02:46:38;;;;;;;75.30;24.17;;;;;;;;;;5027706;28;20216;-66
2023/01/26 02:51:47;;;;;;;80.30;22.40;;;;;;;;;;5027174;28;20246;-65
2023/01/26 02:55:21;;;;;;;83.70;24.57;;;;;;;;;;5030601;28;20576;-67
2023/01/26 02:56:58;;;;;;;80.90;24.20;;;;;;;;;;5030361;28;20201;-65
2023/01/26 02:59:23;;;;;;;81.07;24.60;;;;;;;;;;5023546;28;20198;-67
2023/01/26 03:01:50;;;;;;;84.13;25.00;;;;;;;;;;5024869;28;20250;-67
2023/01/26 03:04:16;;;;;;;78.70;24.87;;;;;;;;;;5028314;28;20221;-65
2023/01/26 03:06:41;;;;;;;83.27;25.33;;;;;;;;;;5029137;28;20205;-65
2023/01/26 03:09:06;;;;;;;77.13;22.77;;;;;;;;;;5037261;28;20668;-67
2023/01/26 03:11:40;;;;;;;76.47;24.07;;;;;;;;;;5028628;28;20190;-65
2023/01/26 03:14:07;;;;;;;68.70;22.77;;;;;;;;;;5024749;28;20665;-65
2023/01/26 03:16:32;;;;;;;80.60;22.90;;;;;;;;;;5031043;28;20516;-65
2023/01/26 03:29:43;;;;;;;74.90;22.63;;;;;;;;;;5029223;28;20194;-66
2023/01/26 03:32:08;;;;;;;79.43;22.67;;;;;;;;;;5018415;28;20360;-66
2023/01/26 03:34:33;;;;;;;76.97;22.57;;;;;;;;;;5036036;28;20193;-66
2023/01/26 03:36:59;;;;;;;76.83;23.90;;;;;;;;;;5025349;28;20282;-66
2023/01/26 03:58:54;;;;;;;66.37;21.37;;;;;;;;;;5024042;28;20588;-66
2023/01/26 04:01:26;;;;;;;66.47;22.00;;;;;;;;;;5024480;28;20263;-66
2023/01/26 04:09:24;;;;;;;63.77;20.97;;;;;;;;;;5029951;28;20216;-67
2023/01/26 04:11:49;;;;;;;59.60;20.20;;;;;;;;;;5032976;28;20233;-67
2023/01/26 04:22:33;;;;;;;57.77;17.77;;;;;;;;;;5023657;28;20186;-66
2023/01/26 04:24:58;;;;;;;63.20;19.30;;;;;;;;;;5030229;28;20733;-65
2023/01/26 04:27:24;;;;;;;56.83;19.53;;;;;;;;;;5025637;28;20229;-66
2023/01/26 04:29:49;;;;;;;61.47;19.83;;;;;;;;;;5023707;28;20535;-66
2023/01/26 04:32:15;;;;;;;55.23;19.13;;;;;;;;;;5020302;28;20210;-67
2023/01/26 04:34:40;;;;;;;62.80;19.13;;;;;;;;;;5023117;28;20201;-66
2023/01/26 04:37:05;;;;;;;56.10;17.93;;;;;;;;;;5031673;28;20190;-67
2023/01/26 04:39:31;;;;;;;56.43;17.83;;;;;;;;;;5031686;28;20213;-66
2023/01/26 04:41:56;;;;;;;54.23;18.03;;;;;;;;;;5030192;28;20198;-67
2023/01/26 04:44:22;;;;;;;50.10;16.93;;;;;;;;;;5019434;28;20213;-66
2023/01/26 04:46:47;;;;;;;50.37;17.13;;;;;;;;;;5023134;28;20292;-67
2023/01/26 04:49:13;;;;;;;46.30;15.53;;;;;;;;;;5028160;28;20269;-67
2023/01/26 04:51:39;;;;;;;47.33;16.10;;;;;;;;;;5034972;28;20194;-66
2023/01/26 04:54:05;;;;;;;43.80;15.83;;;;;;;;;;5036076;28;20194;-66
2023/01/26 04:56:32;;;;;;;47.10;15.60;;;;;;;;;;5038245;28;20257;-66
2023/01/26 04:59:00;;;;;;;49.07;16.97;;;;;;;;;;5039426;28;20200;-67
2023/01/26 05:01:25;;;;;;;46.93;16.57;;;;;;;;;;5026120;28;20210;-68
2023/01/26 05:03:51;;;;;;;45.50;15.20;;;;;;;;;;5025722;28;20186;-67
2023/01/26 05:06:17;;;;;;;44.73;15.03;;;;;;;;;;5032578;28;20189;-67
2023/01/26 05:08:42;;;;;;;40.03;13.90;;;;;;;;;;5034313;28;20632;-67
2023/01/26 05:11:08;;;;;;;41.93;14.87;;;;;;;;;;5039080;28;20195;-67
2023/01/26 05:13:34;;;;;;;38.23;13.87;;;;;;;;;;5034723;28;20663;-67
2023/01/26 05:16:01;;;;;;;38.10;14.10;;;;;;;;;;5038527;28;20288;-67
2023/01/26 05:18:27;;;;;;;38.07;13.60;;;;;;;;;;5015488;28;20285;-67
2023/01/26 05:20:52;;;;;;;42.07;13.97;;;;;;;;;;5026689;28;20185;-67
2023/01/26 05:23:18;;;;;;;42.47;13.90;;;;;;;;;;5025189;28;20201;-67
2023/01/26 05:25:43;;;;;;;38.83;13.87;;;;;;;;;;5029850;28;20197;-67
2023/01/26 05:28:09;;;;;;;38.27;13.47;;;;;;;;;;5025081;28;20232;-67
2023/01/26 05:30:34;;;;;;;35.97;12.57;;;;;;;;;;5024197;28;20575;-67
2023/01/26 05:33:01;;;;;;;36.00;12.73;;;;;;;;;;5039430;28;20256;-67
2023/01/26 05:35:26;;;;;;;30.30;11.17;;;;;;;;;;5028630;28;20273;-67
2023/01/26 05:37:52;;;;;;;29.80;11.13;;;;;;;;;;5025930;28;20277;-67
2023/01/26 05:40:17;;;;;;;33.83;11.90;;;;;;;;;;5024980;28;20704;-67
2023/01/26 05:42:43;;;;;;;29.73;10.87;;;;;;;;;;5025027;28;20259;-67
2023/01/26 05:45:09;;;;;;;31.03;11.80;;;;;;;;;;5024880;28;20220;-67
2023/01/26 05:47:34;;;;;;;29.93;11.33;;;;;;;;;;5022415;28;20292;-67
2023/01/26 05:49:59;;;;;;;32.00;11.67;;;;;;;;;;5026785;28;20232;-67
2023/01/26 05:52:25;;;;;;;27.77;11.10;;;;;;;;;;5022534;28;20689;-67
2023/01/26 05:54:50;;;;;;;33.37;11.63;;;;;;;;;;5023643;28;20237;-67
2023/01/26 05:57:16;;;;;;;33.43;11.60;;;;;;;;;;5026281;28;20592;-67
2023/01/26 05:59:41;;;;;;;35.13;11.67;;;;;;;;;;5029440;28;20230;-67
2023/01/26 06:02:10;;;;;;;32.63;11.23;;;;;;;;;;5018034;28;20221;-67
2023/01/26 06:04:35;;;;;;;33.60;11.30;;;;;;;;;;5027430;28;20286;-67
2023/01/26 06:07:00;;;;;;;30.90;11.67;;;;;;;;;;5037443;28;20740;-68
2023/01/26 06:09:26;;;;;;;31.20;11.60;;;;;;;;;;5033159;28;20208;-67
2023/01/26 06:11:51;;;;;;;29.83;11.07;;;;;;;;;;5032900;28;20213;-67
2023/01/26 06:14:17;;;;;;;31.87;11.57;;;;;;;;;;5028532;28;20194;-67
2023/01/26 06:16:42;;;;;;;29.77;11.07;;;;;;;;;;5024356;28;20289;-68
2023/01/26 06:19:09;;;;;;;33.67;11.00;;;;;;;;;;5034954;28;20198;-67
2023/01/26 06:21:35;;;;;;;29.33;10.77;;;;;;;;;;5023476;28;20208;-68
2023/01/26 06:24:00;;;;;;;30.53;11.23;;;;;;;;;;5022546;28;20205;-67
2023/01/26 06:26:26;;;;;;;30.30;10.93;;;;;;;;;;5024537;28;20221;-68
2023/01/26 06:28:52;;;;;;;28.97;11.07;;;;;;;;;;5024678;28;20194;-67
2023/01/26 06:31:18;;;;;;;31.53;10.87;;;;;;;;;;5023002;28;20661;-67
2023/01/26 06:33:44;;;;;;;28.20;10.67;;;;;;;;;;5021164;28;20550;-68
2023/01/26 06:36:11;;;;;;;29.33;10.83;;;;;;;;;;5031392;28;20221;-68
2023/01/26 06:38:37;;;;;;;27.37;10.33;;;;;;;;;;5019731;28;20756;-68
2023/01/26 06:41:05;;;;;;;26.70;10.23;;;;;;;;;;5021672;28;20190;-68
2023/01/26 06:43:32;;;;;;;29.73;9.93;;;;;;;;;;5023400;28;20308;-69
2023/01/26 06:45:57;;;;;;;28.87;10.13;;;;;;;;;;5032366;28;20193;-68
2023/01/26 06:48:28;;;;;;;28.37;10.00;;;;;;;;;;5020748;28;20537;-68
2023/01/26 06:50:56;;;;;;;26.60;10.37;;;;;;;;;;5030616;28;20187;-68
2023/01/26 06:53:31;;;;;;;27.47;10.13;;;;;;;;;;5018818;28;20678;-68
2023/01/26 06:55:57;;;;;;;26.50;9.93;;;;;;;;;;5015681;28;20204;-69
2023/01/26 06:58:22;;;;;;;25.73;10.53;;;;;;;;;;5022293;28;20195;-68
2023/01/26 07:00:48;;;;;;;24.17;10.10;;;;;;;;;;5019233;28;20210;-68
2023/01/26 07:03:13;;;;;;;24.77;10.20;;;;;;;;;;5025569;28;20871;-69
2023/01/26 07:05:39;;;;;;;31.30;10.83;;;;;;;;;;5023520;28;20197;-68
2023/01/26 07:08:07;;;;;;;28.40;9.97;;;;;;;;;;5025833;28;20194;-69
2023/01/26 07:10:33;;;;;;;25.53;10.07;;;;;;;;;;5024983;28;20187;-68
2023/01/26 07:12:58;;;;;;;25.73;9.83;;;;;;;;;;5029544;28;20214;-68
2023/01/26 07:15:24;;;;;;;30.93;10.80;;;;;;;;;;5044469;28;20201;-68
2023/01/26 07:17:49;;;;;;;29.97;10.87;;;;;;;;;;5038909;28;20220;-68
2023/01/26 07:20:15;;;;;;;29.37;11.53;;;;;;;;;;5041153;28;20221;-69
2023/01/26 07:22:40;;;;;;;30.70;10.83;;;;;;;;;;5037542;28;20268;-69
2023/01/26 07:25:06;;;;;;;28.07;10.73;;;;;;;;;;5037689;28;20229;-69
2023/01/26 07:27:31;;;;;;;29.20;11.37;;;;;;;;;;5032486;28;20265;-69
2023/01/26 07:29:56;;;;;;;29.90;10.43;;;;;;;;;;5041291;28;20801;-69
2023/01/26 07:32:22;;;;;;;35.17;11.43;;;;;;;;;;5038843;28;20214;-69
2023/01/26 07:34:48;;;;;;;31.10;10.53;;;;;;;;;;5034637;28;20558;-69
2023/01/26 07:37:13;;;;;;;26.53;10.37;;;;;;;;;;5043228;28;20198;-70
2023/01/26 07:39:39;;;;;;;30.43;10.63;;;;;;;;;;5035547;28;20252;-69
2023/01/26 07:42:04;;;;;;;27.43;11.07;;;;;;;;;;5020405;28;20186;-69
2023/01/26 07:44:30;;;;;;;24.97;9.93;;;;;;;;;;5028395;28;20196;-69
2023/01/26 07:46:56;;;;;;;32.03;11.03;;;;;;;;;;5039040;28;20320;-69
2023/01/26 07:49:26;;;;;;;26.20;9.91;;;;;;;;;;4508595;28;10002966;-69
2023/01/26 07:51:52;;;;;;;34.07;11.73;;;;;;;;;;5022393;28;20748;-69
2023/01/26 07:54:20;;;;;;;32.97;11.83;;;;;;;;;;5024643;28;20194;-69
2023/01/26 07:56:46;;;;;;;29.97;11.13;;;;;;;;;;5033996;28;20276;-69
2023/01/26 07:59:11;;;;;;;30.13;10.40;;;;;;;;;;5037632;28;20582;-69
2023/01/26 08:01:37;;;;;;;32.53;11.63;;;;;;;;;;5025504;28;20693;-69
2023/01/26 08:04:02;;;;;;;36.10;12.70;;;;;;;;;;5028817;28;20207;-68
2023/01/26 08:06:27;;;;;;;36.13;11.17;;;;;;;;;;5033194;28;20189;-68
2023/01/26 08:08:53;;;;;;;43.83;11.80;;;;;;;;;;5038941;28;20220;-68
2023/01/26 08:11:21;;;;;;;41.97;12.90;;;;;;;;;;5044943;28;20727;-68
2023/01/26 08:13:46;;;;;;;40.93;12.30;;;;;;;;;;5031148;28;20214;-69
2023/01/26 08:16:12;;;;;;;41.67;12.33;;;;;;;;;;5023411;28;20280;-69
2023/01/26 08:18:38;;;;;;;48.80;13.10;;;;;;;;;;5032539;28;20565;-70
2023/01/26 08:21:04;;;;;;;48.70;13.67;;;;;;;;;;5024627;28;20582;-69
2023/01/26 08:23:29;;;;;;;43.23;12.97;;;;;;;;;;5023897;28;20617;-69
2023/01/26 08:26:00;;;;;;;45.03;14.43;;;;;;;;;;5039012;28;20264;-69
2023/01/26 08:28:25;;;;;;;62.43;13.87;;;;;;;;;;5031917;28;20249;-69
2023/01/26 08:30:51;;;;;;;54.13;13.93;;;;;;;;;;5032594;28;20237;-69
2023/01/26 08:33:16;;;;;;;60.23;15.23;;;;;;;;;;5026195;28;20275;-69
2023/01/26 08:35:41;;;;;;;52.33;14.70;;;;;;;;;;5033174;28;20425;-70
2023/01/26 08:38:07;;;;;;;52.63;15.37;;;;;;;;;;5037976;28;20658;-70
2023/01/26 08:40:32;;;;;;;51.57;15.47;;;;;;;;;;5026011;28;20277;-70
2023/01/26 08:43:00;;;;;;;60.23;15.63;;;;;;;;;;5026481;28;20227;-70
2023/01/26 08:45:25;;;;;;;52.97;15.23;;;;;;;;;;5014602;28;20232;-70
2023/01/26 08:47:50;;;;;;;57.30;16.37;;;;;;;;;;5016425;28;20776;-69
2023/01/26 08:50:16;;;;;;;64.73;16.80;;;;;;;;;;5033384;28;20197;-69
2023/01/26 08:52:42;;;;;;;64.87;16.13;;;;;;;;;;5022001;28;20218;-69
2023/01/26 08:55:08;;;;;;;69.07;17.00;;;;;;;;;;5026016;28;20642;-69
2023/01/26 08:57:33;;;;;;;77.47;19.07;;;;;;;;;;5033096;28;20272;-69
2023/01/26 08:59:58;;;;;;;86.83;18.97;;;;;;;;;;5029873;28;20232;-69
2023/01/26 09:02:24;;;;;;;91.10;20.57;;;;;;;;;;5025933;28;20190;-69
2023/01/26 09:04:49;;;;;;;79.13;18.20;;;;;;;;;;5017320;28;20198;-68
2023/01/26 09:07:15;;;;;;;86.57;20.83;;;;;;;;;;5024828;28;20217;-69
2023/01/26 09:09:40;;;;;;;94.33;20.53;;;;;;;;;;5018294;28;20200;-69
2023/01/26 09:12:05;;;;;;;99.00;20.10;;;;;;;;;;5019335;28;20800;-70
2023/01/26 09:14:31;;;;;;;82.33;19.67;;;;;;;;;;5015397;28;20182;-71
2023/01/26 09:16:56;;;;;;;111.23;21.00;;;;;;;;;;5021930;28;20204;-72
2023/01/26 09:19:22;;;;;;;74.03;19.57;;;;;;;;;;5027057;28;20194;-71
2023/01/26 09:21:53;;;;;;;89.63;20.27;;;;;;;;;;5027051;28;20272;-69
2023/01/26 09:24:20;;;;;;;80.70;19.03;;;;;;;;;;5025355;28;20194;-71
2023/01/26 09:26:45;;;;;;;118.33;37.63;;;;;;;;;;5029063;28;20731;-71
2023/01/26 09:29:11;;;;;;;87.97;21.20;;;;;;;;;;5022581;28;20197;-70
2023/01/26 09:31:36;;;;;;;106.23;21.40;;;;;;;;;;5027068;28;20608;-71
2023/01/26 09:34:02;;;;;;;130.73;22.87;;;;;;;;;;5029113;28;20218;-71
2023/01/26 09:36:27;;;;;;;118.60;21.93;;;;;;;;;;5026847;28;20190;-69
2023/01/26 09:38:52;;;;;;;93.13;21.27;;;;;;;;;;5025879;28;20661;-70
2023/01/26 09:41:33;;;;;;;92.07;20.87;;;;;;;;;;5027898;28;20276;-70
2023/01/26 09:44:22;;;;;;;100.23;21.87;;;;;;;;;;5017021;28;20245;-70
2023/01/26 09:47:02;;;;;;;96.63;22.20;;;;;;;;;;5026148;28;20187;-70
2023/01/26 09:49:53;;;;;;;110.83;22.53;;;;;;;;;;5021615;28;20246;-70
2023/01/26 09:52:30;;;;;;;108.93;23.83;;;;;;;;;;5020355;28;20205;-70
2023/01/26 09:54:58;;;;;;;104.93;22.27;;;;;;;;;;5015633;28;20772;-70
2023/01/26 09:57:32;;;;;;;117.43;24.13;;;;;;;;;;5022766;28;20694;-69
2023/01/26 10:00:04;;;;;;;107.83;23.70;;;;;;;;;;5016574;28;20214;-70
2023/01/26 10:02:45;;;;;;;109.00;24.57;;;;;;;;;;5015294;28;20748;-72
2023/01/26 10:05:31;;;;;;;95.27;23.13;;;;;;;;;;5028230;28;20201;-72
2023/01/26 10:07:57;;;;;;;105.20;22.53;;;;;;;;;;5028724;28;20243;-72
2023/01/26 10:10:33;;;;;;;109.37;22.10;;;;;;;;;;5025462;28;20194;-72
2023/01/26 10:13:00;;;;;;;141.63;23.30;;;;;;;;;;5034879;28;20270;-71
2023/01/26 10:15:42;;;;;;;153.43;24.23;;;;;;;;;;5010826;28;20732;-70
2023/01/26 10:18:16;;;;;;;171.87;24.23;;;;;;;;;;5023364;28;20250;-72
2023/01/26 10:20:46;;;;;;;174.70;24.43;;;;;;;;;;5009532;28;20233;-68
2023/01/26 10:23:23;;;;;;;153.60;22.20;;;;;;;;;;5012735;28;20193;-68
2023/01/26 10:25:50;;;;;;;157.53;22.67;;;;;;;;;;5028295;28;20563;-68
2023/01/26 10:28:19;;;;;;;182.40;23.77;;;;;;;;;;5027337;28;20542;-69
2023/01/26 10:30:46;;;;;;;178.87;21.17;;;;;;;;;;5027764;28;20201;-69
2023/01/26 10:33:25;;;;;;;122.87;18.67;;;;;;;;;;5026160;28;20218;-70
2023/01/26 10:35:50;;;;;;;156.83;20.20;;;;;;;;;;5023333;28;20192;-69
2023/01/26 10:38:32;;;;;;;114.83;18.27;;;;;;;;;;5031130;28;20186;-69
2023/01/26 10:41:21;;;;;;;185.53;20.13;;;;;;;;;;5032007;28;20189;-69
2023/01/26 10:43:58;;;;;;;182.93;21.40;;;;;;;;;;5018806;28;20252;-69
2023/01/26 10:46:30;;;;;;;155.20;20.57;;;;;;;;;;5020518;28;20182;-68
2023/01/26 10:49:14;;;;;;;109.67;17.40;;;;;;;;;;5027646;28;20201;-68
2023/01/26 10:51:44;;;;;;;99.43;16.50;;;;;;;;;;5031875;28;20182;-68
2023/01/26 10:54:13;;;;;;;95.27;17.63;;;;;;;;;;5012676;28;20194;-68
2023/01/26 10:56:47;;;;;;;107.57;17.33;;;;;;;;;;5025036;28;20194;-68
2023/01/26 10:59:29;;;;;;;99.80;16.03;;;;;;;;;;5020892;28;20193;-68
2023/01/26 11:01:55;;;;;;;103.40;16.30;;;;;;;;;;5031034;28;20220;-68
2023/01/26 11:04:22;;;;;;;69.83;14.03;;;;;;;;;;5031925;28;20272;-68
2023/01/26 11:06:47;;;;;;;76.17;14.30;;;;;;;;;;5040381;28;20232;-68
2023/01/26 11:09:12;;;;;;;69.93;13.50;;;;;;;;;;5029856;28;20580;-68
2023/01/26 11:11:38;;;;;;;64.70;13.43;;;;;;;;;;5041636;28;20194;-68
2023/01/26 11:14:18;;;;;;;62.87;12.97;;;;;;;;;;5031308;28;20255;-68
2023/01/26 11:16:52;;;;;;;72.47;13.30;;;;;;;;;;5017058;28;20685;-68
2023/01/26 11:19:43;;;;;;;62.60;14.23;;;;;;;;;;5030471;28;20197;-68
2023/01/26 11:22:27;;;;;;;72.83;13.47;;;;;;;;;;5027119;28;20820;-69
2023/01/26 11:25:11;;;;;;;62.27;14.07;;;;;;;;;;5022585;28;20193;-69
2023/01/26 11:27:56;;;;;;;66.27;12.90;;;;;;;;;;5030102;28;20295;-69
2023/01/26 11:30:24;;;;;;;62.27;13.50;;;;;;;;;;5019961;28;20506;-68
2023/01/26 11:32:58;;;;;;;65.33;12.07;;;;;;;;;;5030313;28;20256;-69
2023/01/26 11:35:47;;;;;;;50.93;12.63;;;;;;;;;;5019286;28;20282;-68
2023/01/26 11:38:37;;;;;;;43.53;11.30;;;;;;;;;;5036867;28;20189;-69
2023/01/26 11:41:27;;;;;;;46.10;12.13;;;;;;;;;;5031444;28;20194;-68
2023/01/26 11:44:11;;;;;;;49.40;12.00;;;;;;;;;;5026221;28;20197;-68
2023/01/26 11:46:47;;;;;;;48.17;11.70;;;;;;;;;;5025410;28;20198;-68
2023/01/26 11:49:18;;;;;;;49.03;11.93;;;;;;;;;;5025673;28;20213;-68
2023/01/26 11:52:09;;;;;;;46.83;12.10;;;;;;;;;;5024326;28;20258;-68
2023/01/26 11:54:56;;;;;;;47.93;11.63;;;;;;;;;;5029472;28;20198;-68
2023/01/26 11:57:49;;;;;;;46.60;11.40;;;;;;;;;;5030703;28;20665;-69
2023/01/26 12:00:37;;;;;;;41.07;11.53;;;;;;;;;;5020134;28;20230;-69
2023/01/26 12:03:05;;;;;;;51.17;11.97;;;;;;;;;;5023293;28;20214;-69
2023/01/26 12:05:43;;;;;;;49.63;11.87;;;;;;;;;;5029522;28;20277;-69
2023/01/26 12:08:37;;;;;;;49.07;11.33;;;;;;;;;;5032343;28;20196;-69
2023/01/26 12:11:21;;;;;;;46.37;11.13;;;;;;;;;;5039049;28;20611;-69
2023/01/26 12:14:07;;;;;;;45.60;11.67;;;;;;;;;;5031327;28;20775;-69
2023/01/26 12:16:41;;;;;;;41.87;11.83;;;;;;;;;;5014313;28;20218;-69
2023/01/26 12:19:40;;;;;;;49.60;11.03;;;;;;;;;;5034538;28;20185;-69
2023/01/26 12:22:23;;;;;;;49.07;11.53;;;;;;;;;;5018420;28;20189;-68
2023/01/26 12:25:05;;;;;;;46.27;11.63;;;;;;;;;;5037010;28;20268;-68
2023/01/26 12:27:41;;;;;;;44.27;10.77;;;;;;;;;;5019661;28;20273;-69
2023/01/26 12:30:22;;;;;;;48.17;12.07;;;;;;;;;;5015515;28;20185;-69
2023/01/26 12:32:48;;;;;;;55.60;11.67;;;;;;;;;;5031221;28;20618;-69
2023/01/26 12:35:35;;;;;;;36.37;11.07;;;;;;;;;;5029022;28;20190;-69
2023/01/26 12:38:12;;;;;;;40.80;9.00;;;;;;;;;;5030227;28;20190;-70
2023/01/26 12:40:49;;;;;;;42.93;9.70;;;;;;;;;;5028801;28;20759;-69
2023/01/26 12:44:15;;;;;;;51.80;9.80;;;;;;;;;;5029284;28;20224;-69
2023/01/26 12:46:48;;;;;;;44.70;9.23;;;;;;;;;;5007697;28;20198;-70
2023/01/26 12:49:21;;;;;;;45.00;9.97;;;;;;;;;;5002941;28;20198;-69
2023/01/26 12:51:53;;;;;;;42.50;7.97;;;;;;;;;;5024109;28;20206;-70
2023/01/26 12:54:29;;;;;;;31.20;6.27;;;;;;;;;;5031138;28;20202;-70
2023/01/26 12:56:58;;;;;;;33.40;5.07;;;;;;;;;;5024587;28;20585;-69
2023/01/26 12:59:34;;;;;;;26.53;4.97;;;;;;;;;;5012172;28;20198;-70
2023/01/26 13:02:22;;;;;;;32.00;5.50;;;;;;;;;;5017131;28;20516;-70
2023/01/26 13:04:49;;;;;;;33.67;4.83;;;;;;;;;;5028419;28;20194;-70
2023/01/26 13:07:31;;;;;;;34.73;4.93;;;;;;;;;;5026472;28;20295;-69
2023/01/26 13:10:13;;;;;;;31.53;4.90;;;;;;;;;;5028738;28;20703;-70
2023/01/26 13:12:57;;;;;;;35.20;4.93;;;;;;;;;;5026406;28;20349;-70
2023/01/26 13:15:25;;;;;;;26.90;4.40;;;;;;;;;;5037038;28;20652;-70
2023/01/26 13:17:57;;;;;;;29.83;4.47;;;;;;;;;;5028447;28;20190;-70
2023/01/26 13:20:42;;;;;;;23.30;5.17;;;;;;;;;;5026618;28;20178;-70
2023/01/26 13:23:35;;;;;;;22.00;3.47;;;;;;;;;;5027801;28;20551;-70
2023/01/26 13:26:15;;;;;;;27.47;3.63;;;;;;;;;;5034196;28;20218;-69
2023/01/26 13:28:42;;;;;;;24.87;3.43;;;;;;;;;;5008586;28;20186;-70
2023/01/26 13:31:09;;;;;;;29.60;4.17;;;;;;;;;;5021127;28;20205;-70
2023/01/26 13:33:34;;;;;;;30.07;3.60;;;;;;;;;;5013472;28;20222;-70
2023/01/26 13:36:09;;;;;;;20.67;3.23;;;;;;;;;;5020838;28;20643;-71
2023/01/26 13:38:42;;;;;;;17.63;2.63;;;;;;;;;;5039021;28;20198;-69
2023/01/26 13:41:19;;;;;;;17.33;2.57;;;;;;;;;;5027782;28;20260;-70
2023/01/26 13:43:56;;;;;;;21.77;3.43;;;;;;;;;;5024488;28;20557;-70
2023/01/26 13:46:43;;;;;;;22.97;3.53;;;;;;;;;;5011039;28;20237;-70
2023/01/26 13:49:37;;;;;;;26.67;3.00;;;;;;;;;;5009545;28;20194;-70
2023/01/26 13:52:14;;;;;;;24.23;2.93;;;;;;;;;;5008278;28;20333;-69
2023/01/26 13:54:41;;;;;;;20.33;2.63;;;;;;;;;;5024842;28;20720;-69
2023/01/26 13:57:09;;;;;;;28.73;3.33;;;;;;;;;;5019317;28;20301;-70
2023/01/26 13:59:50;;;;;;;25.58;3.30;;;;;;;;;;5019098;28;20214;-69
2023/01/26 14:02:32;;;;;;;19.65;2.75;;;;;;;;;;5016550;28;20191;-69
2023/01/26 14:04:58;;;;;;;21.40;3.17;;;;;;;;;;5018723;28;20295;-69
2023/01/26 14:07:31;;;;;;;18.20;2.55;;;;;;;;;;5030170;28;20281;-69
2023/01/26 14:09:59;;;;;;;17.10;2.42;;;;;;;;;;5034562;28;20200;-69
2023/01/26 14:12:40;;;;;;;17.07;2.83;;;;;;;;;;5028058;28;20554;-70
2023/01/26 14:15:18;;;;;;;17.63;3.03;;;;;;;;;;5042601;28;20197;-70
2023/01/26 14:17:50;;;;;;;15.40;2.58;;;;;;;;;;5022712;28;20198;-70
2023/01/26 14:20:34;;;;;;;18.10;2.20;;;;;;;;;;5033454;28;20669;-70
2023/01/26 14:23:02;;;;;;;20.20;1.75;;;;;;;;;;5021968;28;20187;-70
2023/01/26 14:25:28;;;;;;;12.48;1.52;;;;;;;;;;5045709;28;20623;-71
2023/01/26 14:27:53;;;;;;;8.68;1.90;;;;;;;;;;5022631;28;20309;-70
2023/01/26 14:30:20;;;;;;;14.05;1.80;;;;;;;;;;5033833;28;20336;-70
2023/01/26 14:32:46;;;;;;;11.13;1.40;;;;;;;;;;5023109;28;20273;-70
2023/01/26 14:35:19;;;;;;;10.63;1.20;;;;;;;;;;5041967;28;20402;-70
2023/01/26 14:37:44;;;;;;;12.57;1.63;;;;;;;;;;5024680;28;20227;-73
2023/01/26 14:40:21;;;;;;;10.00;1.20;;;;;;;;;;5043156;28;20214;-71
2023/01/26 14:42:49;;;;;;;10.75;1.45;;;;;;;;;;5024112;28;20189;-70
2023/01/26 14:45:16;;;;;;;12.50;1.30;;;;;;;;;;5030211;28;20204;-70
2023/01/26 14:47:42;;;;;;;9.35;1.50;;;;;;;;;;5032756;28;20213;-70
2023/01/26 14:50:22;;;;;;;9.93;1.57;;;;;;;;;;5031560;28;20194;-70
2023/01/26 14:52:48;;;;;;;13.68;1.50;;;;;;;;;;5022390;28;20217;-70
2023/01/26 14:55:20;;;;;;;8.25;1.17;;;;;;;;;;5030893;28;20186;-70
2023/01/26 14:57:45;;;;;;;13.63;1.85;;;;;;;;;;5042047;28;20790;-70
2023/01/26 15:00:37;;;;;;;14.13;1.60;;;;;;;;;;5043700;28;20201;-70
2023/01/26 15:03:20;;;;;;;9.73;1.10;;;;;;;;;;5023153;28;20206;-69
2023/01/26 15:05:46;;;;;;;11.82;1.38;;;;;;;;;;5043774;28;20208;-70
2023/01/26 15:08:21;;;;;;;11.20;1.15;;;;;;;;;;5039308;28;20603;-70
2023/01/26 15:13:55;;;;;;;12.80;2.17;;;;;;;;;;5039478;28;20209;-70
2023/01/26 15:16:23;;;;;;;9.80;1.25;;;;;;;;;;5043932;28;20211;-70
2023/01/26 15:18:59;;;;;;;13.70;1.37;;;;;;;;;;5044416;28;20272;-69
2023/01/26 15:21:45;;;;;;;14.70;2.08;;;;;;;;;;5042434;28;20198;-69
2023/01/26 15:24:13;;;;;;;11.75;1.77;;;;;;;;;;5038180;28;20193;-69
2023/01/26 15:26:39;;;;;;;14.57;1.88;;;;;;;;;;5029900;28;20617;-70
2023/01/26 15:29:17;;;;;;;8.07;1.20;;;;;;;;;;5026462;28;20319;-69